createdAt,value
2019-04-22T00:00:12.715Z,100335
2019-04-22T00:05:22.419Z,100337
2019-04-22T00:10:38.872Z,100335
2019-04-22T00:15:31.945Z,100325
2019-04-22T00:20:35.062Z,100334
2019-04-22T00:25:40.875Z,100324
2019-04-22T00:30:33.740Z,100321
2019-04-22T00:35:34.391Z,100316
2019-04-22T00:40:39.173Z,100304
2019-04-22T00:45:38.423Z,100312
2019-04-22T00:50:36.885Z,100306
2019-04-22T00:55:37.421Z,100320
2019-04-22T01:00:37.398Z,100314
2019-04-22T01:05:40.250Z,100316
2019-04-22T01:10:38.774Z,100315
2019-04-22T01:15:40.030Z,100297
2019-04-22T01:21:00.383Z,100304
2019-04-22T01:25:29.279Z,100305
2019-04-22T01:30:23.123Z,100291
2019-04-22T01:35:24.301Z,100280
2019-04-22T01:40:38.350Z,100283
2019-04-22T01:45:39.090Z,100284
2019-04-22T01:50:36.652Z,100295
2019-04-22T01:55:36.757Z,100276
2019-04-22T02:00:39.477Z,100273
2019-04-22T02:05:33.891Z,100271
2019-04-22T02:10:39.013Z,100270
2019-04-22T02:15:37.787Z,100268
2019-04-22T02:20:35.701Z,100266
2019-04-22T02:25:40.759Z,100257
2019-04-22T02:30:49.144Z,100264
2019-04-22T02:35:57.102Z,100249
2019-04-22T02:40:55.768Z,100252
2019-04-22T02:45:49.679Z,100246
2019-04-22T02:50:43.185Z,100247
2019-04-22T02:55:48.654Z,100238
2019-04-22T03:00:44.041Z,100228
2019-04-22T03:05:55.085Z,100232
2019-04-22T03:10:54.505Z,100233
2019-04-22T03:15:50.703Z,100227
2019-04-22T03:20:49.863Z,100221
2019-04-22T03:25:58.398Z,100216
2019-04-22T03:35:48.720Z,100207
2019-04-22T03:40:45.967Z,100203
2019-04-22T03:45:45.485Z,100204
2019-04-22T03:55:42.939Z,100214
2019-04-22T04:10:47.475Z,100215
2019-04-22T04:15:37.955Z,100215
2019-04-22T04:20:44.396Z,100218
2019-04-22T04:25:51.413Z,100211
2019-04-22T04:30:45.603Z,100210
2019-04-22T04:35:45.760Z,100190
2019-04-22T04:40:39.693Z,100198
2019-04-22T04:45:44.674Z,100185
2019-04-22T04:50:46.793Z,100184
2019-04-22T05:05:39.339Z,100194
2019-04-22T05:15:42.638Z,100187
2019-04-22T05:20:50.435Z,100198
2019-04-22T05:25:31.461Z,100193
2019-04-22T05:30:53.309Z,100192
2019-04-22T05:35:37.360Z,100193
2019-04-22T05:40:49.478Z,100185
2019-04-22T05:45:31.013Z,100204
2019-04-22T05:50:36.528Z,100197
2019-04-22T05:55:41.362Z,100185
2019-04-22T06:01:03.477Z,100187
2019-04-22T06:05:34.166Z,100193
2019-04-22T06:10:51.484Z,100190
2019-04-22T06:15:33.705Z,100178
2019-04-22T06:20:36.744Z,100192
2019-04-22T06:26:04.745Z,100182
2019-04-22T06:40:38.969Z,100184
2019-04-22T06:45:33.606Z,100168
2019-04-22T06:55:51.113Z,100172
2019-04-22T07:00:36.450Z,100175
2019-04-22T07:05:41.024Z,100176
2019-04-22T07:10:41.864Z,100177
2019-04-22T07:15:46.140Z,100178
2019-04-22T07:20:36.141Z,100173
2019-04-22T07:25:34.416Z,100180
2019-04-22T07:30:38.528Z,100180
2019-04-22T07:35:45.782Z,100180
2019-04-22T07:40:38.620Z,100171
2019-04-22T07:45:35.729Z,100172
2019-04-22T07:50:48.817Z,100181
2019-04-22T07:55:37.918Z,100170
2019-04-22T08:05:43.888Z,100164
2019-04-22T08:10:42.916Z,100166
2019-04-22T08:15:38.577Z,100175
2019-04-22T08:25:38.664Z,100164
2019-04-22T08:30:39.431Z,100158
2019-04-22T08:35:51.948Z,100159
2019-04-22T08:40:41.642Z,100167
2019-04-22T08:45:38.264Z,100165
2019-04-22T08:50:38.660Z,100162
2019-04-22T08:55:38.049Z,100166
2019-04-22T09:00:43.440Z,100172
2019-04-22T09:05:48.189Z,100171
2019-04-22T09:10:29.576Z,100163
2019-04-22T09:15:33.898Z,100160
2019-04-22T09:20:40.120Z,100171
2019-04-22T09:25:39.024Z,100159
2019-04-22T09:30:39.660Z,100147
2019-04-22T09:35:35.974Z,100156
2019-04-22T09:40:34.065Z,100164
2019-04-22T09:45:33.928Z,100164
2019-04-22T09:50:41.898Z,100159
2019-04-22T09:55:33.968Z,100146
2019-04-22T10:00:42.451Z,100131
2019-04-22T10:05:40.510Z,100145
2019-04-22T10:10:41.306Z,100140
2019-04-22T10:15:38.901Z,100133
2019-04-22T10:20:37.665Z,100131
2019-04-22T10:25:34.589Z,100124
2019-04-22T10:30:42.801Z,100134
2019-04-22T10:35:16.870Z,100121
2019-04-22T10:40:13.551Z,100108
2019-04-22T10:45:12.399Z,100102
2019-04-22T10:50:12.391Z,100106
2019-04-22T10:55:13.607Z,100110
2019-04-22T11:00:13.419Z,100095
2019-04-22T11:05:12.376Z,100079
2019-04-22T11:10:27.202Z,100076
2019-04-22T11:15:12.180Z,100065
2019-04-22T11:20:13.344Z,100083
2019-04-22T11:25:12.140Z,100075
2019-04-22T11:30:13.521Z,100069
2019-04-22T11:35:12.141Z,100064
2019-04-22T11:40:18.699Z,100062
2019-04-22T11:45:13.160Z,100048
2019-04-22T11:50:12.232Z,100060
2019-04-22T11:55:12.769Z,100032
2019-04-22T12:00:12.600Z,100046
2019-04-22T12:05:12.168Z,100076
2019-04-22T12:10:27.127Z,100039
2019-04-22T12:15:12.702Z,100023
2019-04-22T12:20:14.000Z,100048
2019-04-22T12:25:12.433Z,100019
2019-04-22T12:30:12.166Z,100019
2019-04-22T12:35:13.523Z,100011
2019-04-22T12:40:13.023Z,100003
2019-04-22T12:45:12.241Z,100004
2019-04-22T12:50:18.330Z,100008
2019-04-22T12:55:12.156Z,99977
2019-04-22T13:00:13.568Z,100004
2019-04-22T13:05:12.457Z,99987
2019-04-22T13:10:13.619Z,99958
2019-04-22T13:15:12.181Z,99970
2019-04-22T13:20:14.907Z,99975
2019-04-22T13:25:12.467Z,99950
2019-04-22T13:30:12.482Z,99957
2019-04-22T13:35:12.806Z,99941
2019-04-22T13:40:12.789Z,99947
2019-04-22T13:45:13.383Z,99945
2019-04-22T13:51:36.013Z,99904
2019-04-22T14:00:13.520Z,99913
2019-04-22T14:05:12.850Z,99927
2019-04-22T14:10:12.289Z,99951
2019-04-22T14:15:12.217Z,99919
2019-04-22T14:20:13.068Z,99896
2019-04-22T14:25:12.568Z,99897
2019-04-22T14:30:12.526Z,99906
2019-04-22T14:35:13.225Z,99899
2019-04-22T14:40:13.911Z,99876
2019-04-22T14:45:37.737Z,99881
2019-04-22T14:50:34.965Z,99867
2019-04-22T14:55:17.402Z,99870
2019-04-22T15:00:13.581Z,99879
2019-04-22T15:05:12.320Z,99861
2019-04-22T15:10:13.608Z,99872
2019-04-22T15:15:13.459Z,99876
2019-04-22T15:20:12.267Z,99862
2019-04-22T15:25:12.556Z,99855
2019-04-22T15:30:12.190Z,99848
2019-04-22T15:35:13.348Z,99854
2019-04-22T15:40:13.039Z,99855
2019-04-22T15:45:14.485Z,99860
2019-04-22T15:50:12.335Z,99842
2019-04-22T15:55:12.216Z,99857
2019-04-22T16:00:24.919Z,99846
2019-04-22T16:05:12.879Z,99832
2019-04-22T16:10:12.327Z,99841
2019-04-22T16:15:13.243Z,99858
2019-04-22T16:20:13.176Z,99836
2019-04-22T16:25:13.277Z,99837
2019-04-22T16:30:13.099Z,99840
2019-04-22T16:35:12.671Z,99827
2019-04-22T16:40:12.507Z,99835
2019-04-22T16:45:13.477Z,99823
2019-04-22T16:50:12.227Z,99836
2019-04-22T16:55:12.814Z,99827
2019-04-22T17:00:13.054Z,99839
2019-04-22T17:05:13.720Z,99846
2019-04-22T17:10:13.480Z,99823
2019-04-22T17:15:14.262Z,99812
2019-04-22T17:20:13.265Z,99828
2019-04-22T17:25:12.240Z,99821
2019-04-22T17:30:12.479Z,99828
2019-04-22T17:35:12.452Z,99839
2019-04-22T17:40:29.600Z,99845
2019-04-22T17:45:33.096Z,99840
2019-04-22T17:50:37.684Z,99848
2019-04-22T17:55:40.227Z,99845
2019-04-22T18:00:29.744Z,99846
2019-04-22T18:05:14.881Z,99851
2019-04-22T18:10:45.522Z,99871
2019-04-22T18:15:29.176Z,99870
2019-04-22T18:20:28.988Z,99859
2019-04-22T18:25:27.369Z,99855
2019-04-22T18:30:23.875Z,99867
2019-04-22T18:35:30.497Z,99853
2019-04-22T18:40:30.425Z,99864
2019-04-22T18:45:39.247Z,99863
2019-04-22T18:50:36.815Z,99851
2019-04-22T18:55:26.346Z,99852
2019-04-22T19:00:14.102Z,99856
2019-04-22T19:05:26.123Z,99859
2019-04-22T19:10:42.872Z,99859
2019-04-22T19:15:36.233Z,99855
2019-04-22T19:20:37.247Z,99869
2019-04-22T19:25:28.925Z,99868
2019-04-22T19:30:36.348Z,99859
2019-04-22T19:35:26.270Z,99865
2019-04-22T19:40:40.248Z,99854
2019-04-22T19:45:32.392Z,99860
2019-04-22T19:50:34.414Z,99855
2019-04-22T19:55:34.734Z,99847
2019-04-22T20:00:28.172Z,99849
2019-04-22T20:05:37.016Z,99837
2019-04-22T20:10:29.369Z,99842
2019-04-22T20:15:26.429Z,99838
2019-04-22T20:20:40.037Z,99833
2019-04-22T20:25:27.794Z,99821
2019-04-22T20:30:32.672Z,99823
2019-04-22T20:35:32.546Z,99823
2019-04-22T20:40:33.002Z,99806
2019-04-22T20:45:34.650Z,99792
2019-04-22T20:50:34.542Z,99788
2019-04-22T20:55:25.288Z,99786
2019-04-22T21:00:24.841Z,99804
2019-04-22T21:05:23.233Z,99763
2019-04-22T21:10:28.128Z,99765
2019-04-22T21:15:36.623Z,99760
2019-04-22T21:20:36.277Z,99757
2019-04-22T21:25:22.413Z,99765
2019-04-22T21:30:31.735Z,99751
2019-04-22T21:35:46.727Z,99754
2019-04-22T21:40:33.886Z,99740
2019-04-22T21:45:23.660Z,99750
2019-04-22T21:50:41.190Z,99740
2019-04-22T21:55:37.147Z,99770
2019-04-22T22:00:42.697Z,99740
2019-04-22T22:05:27.038Z,99729
2019-04-22T22:10:33.723Z,99742
2019-04-22T22:15:28.489Z,99726
2019-04-22T22:20:27.601Z,99710
2019-04-22T22:25:27.794Z,99707
2019-04-22T22:30:47.181Z,99699
2019-04-22T22:35:29.329Z,99691
2019-04-22T22:40:18.044Z,99674
2019-04-22T22:45:22.297Z,99704
2019-04-22T22:50:29.844Z,99685
2019-04-22T22:55:32.838Z,99712
2019-04-22T23:00:31.188Z,99683
2019-04-22T23:05:37.388Z,99685
2019-04-22T23:10:39.455Z,99668
2019-04-22T23:15:27.308Z,99662
2019-04-22T23:20:13.560Z,99662
2019-04-22T23:25:32.627Z,99651
2019-04-22T23:30:21.437Z,99655
2019-04-22T23:35:22.405Z,99655
2019-04-22T23:40:34.178Z,99655
2019-04-22T23:45:32.813Z,99658
2019-04-22T23:50:30.570Z,99650
2019-04-22T23:55:32.261Z,99650
